sensor_id;sensor_type;location;lat;lon;timestamp;P1;durP1;ratioP1;P2;durP2;ratioP2
25049;SDS011;13046;49.814;9.918;2022-07-29T00:02:17;9.20;;;5.13;;
25049;SDS011;13046;49.814;9.918;2022-07-29T00:04:43;9.18;;;4.95;;
25049;SDS011;13046;49.814;9.918;2022-07-29T00:07:09;12.75;;;4.95;;
25049;SDS011;13046;49.814;9.918;2022-07-29T00:09:34;8.65;;;5.63;;
25049;SDS011;13046;49.814;9.918;2022-07-29T00:12:00;8.95;;;5.53;;
25049;SDS011;13046;49.814;9.918;2022-07-29T00:14:27;8.75;;;4.80;;
25049;SDS011;13046;49.814;9.918;2022-07-29T00:16:53;7.40;;;4.78;;
25049;SDS011;13046;49.814;9.918;2022-07-29T00:19:19;7.32;;;5.03;;
25049;SDS011;13046;49.814;9.918;2022-07-29T00:21:45;6.78;;;5.07;;
25049;SDS011;13046;49.814;9.918;2022-07-29T00:24:10;9.00;;;4.60;;
25049;SDS011;13046;49.814;9.918;2022-07-29T00:26:36;10.20;;;6.05;;
25049;SDS011;13046;49.814;9.918;2022-07-29T00:29:03;8.98;;;5.13;;
25049;SDS011;13046;49.814;9.918;2022-07-29T00:31:29;11.18;;;6.05;;
25049;SDS011;13046;49.814;9.918;2022-07-29T00:33:55;9.02;;;5.07;;
25049;SDS011;13046;49.814;9.918;2022-07-29T00:36:21;7.07;;;5.22;;
25049;SDS011;13046;49.814;9.918;2022-07-29T00:38:47;7.45;;;4.63;;
25049;SDS011;13046;49.814;9.918;2022-07-29T00:41:14;7.40;;;6.10;;
25049;SDS011;13046;49.814;9.918;2022-07-29T00:43:40;6.57;;;5.35;;
25049;SDS011;13046;49.814;9.918;2022-07-29T00:46:05;6.38;;;5.57;;
25049;SDS011;13046;49.814;9.918;2022-07-29T00:48:31;7.38;;;5.35;;
25049;SDS011;13046;49.814;9.918;2022-07-29T00:50:57;8.20;;;5.20;;
25049;SDS011;13046;49.814;9.918;2022-07-29T00:53:24;9.50;;;5.22;;
25049;SDS011;13046;49.814;9.918;2022-07-29T00:55:50;8.95;;;6.15;;
25049;SDS011;13046;49.814;9.918;2022-07-29T00:58:18;8.95;;;5.35;;
25049;SDS011;13046;49.814;9.918;2022-07-29T01:00:44;6.82;;;5.13;;
25049;SDS011;13046;49.814;9.918;2022-07-29T01:03:09;4.78;;;4.28;;
25049;SDS011;13046;49.814;9.918;2022-07-29T01:05:35;5.70;;;4.65;;
25049;SDS011;13046;49.814;9.918;2022-07-29T01:08:01;8.77;;;5.68;;
25049;SDS011;13046;49.814;9.918;2022-07-29T01:10:28;7.63;;;5.20;;
25049;SDS011;13046;49.814;9.918;2022-07-29T01:12:56;8.23;;;4.93;;
25049;SDS011;13046;49.814;9.918;2022-07-29T01:15:24;9.63;;;5.85;;
25049;SDS011;13046;49.814;9.918;2022-07-29T01:17:52;10.05;;;6.72;;
25049;SDS011;13046;49.814;9.918;2022-07-29T01:30:50;7.30;;;5.13;;
25049;SDS011;13046;49.814;9.918;2022-07-29T01:33:18;10.35;;;6.10;;
25049;SDS011;13046;49.814;9.918;2022-07-29T01:36:10;9.57;;;6.18;;
25049;SDS011;13046;49.814;9.918;2022-07-29T01:38:39;6.75;;;5.28;;
25049;SDS011;13046;49.814;9.918;2022-07-29T01:41:08;6.32;;;5.45;;
25049;SDS011;13046;49.814;9.918;2022-07-29T01:43:38;9.10;;;5.50;;
25049;SDS011;13046;49.814;9.918;2022-07-29T01:46:10;8.88;;;6.38;;
25049;SDS011;13046;49.814;9.918;2022-07-29T01:48:45;10.02;;;6.07;;
25049;SDS011;13046;49.814;9.918;2022-07-29T01:51:19;7.35;;;5.72;;
25049;SDS011;13046;49.814;9.918;2022-07-29T01:53:54;12.20;;;5.75;;
25049;SDS011;13046;49.814;9.918;2022-07-29T01:56:21;9.32;;;6.03;;
25049;SDS011;13046;49.814;9.918;2022-07-29T01:58:48;11.95;;;6.20;;
25049;SDS011;13046;49.814;9.918;2022-07-29T02:01:15;9.98;;;5.80;;
25049;SDS011;13046;49.814;9.918;2022-07-29T02:03:45;9.93;;;6.15;;
25049;SDS011;13046;49.814;9.918;2022-07-29T02:06:12;9.88;;;5.82;;
25049;SDS011;13046;49.814;9.918;2022-07-29T02:08:39;8.52;;;6.13;;
25049;SDS011;13046;49.814;9.918;2022-07-29T02:11:06;10.23;;;6.60;;
25049;SDS011;13046;49.814;9.918;2022-07-29T02:13:33;9.25;;;6.32;;
25049;SDS011;13046;49.814;9.918;2022-07-29T02:16:00;7.95;;;6.28;;
25049;SDS011;13046;49.814;9.918;2022-07-29T02:18:26;8.77;;;5.63;;
25049;SDS011;13046;49.814;9.918;2022-07-29T02:20:54;7.95;;;5.50;;
25049;SDS011;13046;49.814;9.918;2022-07-29T02:23:22;10.02;;;6.53;;
25049;SDS011;13046;49.814;9.918;2022-07-29T02:25:49;9.05;;;5.53;;
25049;SDS011;13046;49.814;9.918;2022-07-29T02:28:16;10.15;;;6.03;;
25049;SDS011;13046;49.814;9.918;2022-07-29T02:30:44;6.78;;;5.18;;
25049;SDS011;13046;49.814;9.918;2022-07-29T02:33:12;8.30;;;6.57;;
25049;SDS011;13046;49.814;9.918;2022-07-29T02:35:40;6.57;;;5.90;;
25049;SDS011;13046;49.814;9.918;2022-07-29T02:38:08;5.95;;;5.30;;
25049;SDS011;13046;49.814;9.918;2022-07-29T02:40:55;6.95;;;5.00;;
25049;SDS011;13046;49.814;9.918;2022-07-29T02:43:23;9.43;;;5.90;;
25049;SDS011;13046;49.814;9.918;2022-07-29T02:45:51;7.85;;;6.38;;
25049;SDS011;13046;49.814;9.918;2022-07-29T02:48:20;6.45;;;5.80;;
25049;SDS011;13046;49.814;9.918;2022-07-29T02:50:51;8.95;;;5.53;;
25049;SDS011;13046;49.814;9.918;2022-07-29T02:53:26;6.63;;;5.70;;
25049;SDS011;13046;49.814;9.918;2022-07-29T02:55:57;8.07;;;6.43;;
25049;SDS011;13046;49.814;9.918;2022-07-29T02:58:30;10.50;;;6.43;;
25049;SDS011;13046;49.814;9.918;2022-07-29T03:00:59;8.50;;;7.53;;
25049;SDS011;13046;49.814;9.918;2022-07-29T03:03:29;8.55;;;6.28;;
25049;SDS011;13046;49.814;9.918;2022-07-29T03:05:59;8.77;;;6.70;;
25049;SDS011;13046;49.814;9.918;2022-07-29T03:08:27;7.80;;;5.45;;
25049;SDS011;13046;49.814;9.918;2022-07-29T03:10:53;9.55;;;6.53;;
25049;SDS011;13046;49.814;9.918;2022-07-29T03:13:20;9.73;;;6.20;;
25049;SDS011;13046;49.814;9.918;2022-07-29T03:15:46;10.13;;;5.50;;
25049;SDS011;13046;49.814;9.918;2022-07-29T03:18:12;7.00;;;5.72;;
25049;SDS011;13046;49.814;9.918;2022-07-29T03:20:39;7.95;;;5.72;;
25049;SDS011;13046;49.814;9.918;2022-07-29T03:23:05;7.97;;;6.55;;
25049;SDS011;13046;49.814;9.918;2022-07-29T03:25:31;10.80;;;7.13;;
25049;SDS011;13046;49.814;9.918;2022-07-29T03:27:57;9.48;;;5.90;;
25049;SDS011;13046;49.814;9.918;2022-07-29T03:30:22;11.07;;;6.05;;
25049;SDS011;13046;49.814;9.918;2022-07-29T03:32:49;12.18;;;6.07;;
25049;SDS011;13046;49.814;9.918;2022-07-29T03:35:16;8.55;;;5.97;;
25049;SDS011;13046;49.814;9.918;2022-07-29T03:37:42;8.35;;;6.15;;
25049;SDS011;13046;49.814;9.918;2022-07-29T03:40:09;7.47;;;5.55;;
25049;SDS011;13046;49.814;9.918;2022-07-29T03:42:39;8.55;;;6.20;;
25049;SDS011;13046;49.814;9.918;2022-07-29T03:45:07;8.40;;;5.50;;
25049;SDS011;13046;49.814;9.918;2022-07-29T03:47:37;9.68;;;5.72;;
25049;SDS011;13046;49.814;9.918;2022-07-29T03:50:08;6.97;;;5.72;;
25049;SDS011;13046;49.814;9.918;2022-07-29T03:52:38;7.68;;;5.55;;
25049;SDS011;13046;49.814;9.918;2022-07-29T03:55:04;7.22;;;5.32;;
25049;SDS011;13046;49.814;9.918;2022-07-29T03:57:30;8.25;;;5.90;;
25049;SDS011;13046;49.814;9.918;2022-07-29T03:59:58;10.98;;;5.90;;
25049;SDS011;13046;49.814;9.918;2022-07-29T04:02:25;8.35;;;5.13;;
25049;SDS011;13046;49.814;9.918;2022-07-29T04:04:52;7.25;;;5.78;;
25049;SDS011;13046;49.814;9.918;2022-07-29T04:07:18;11.20;;;7.00;;
25049;SDS011;13046;49.814;9.918;2022-07-29T04:09:43;10.57;;;5.97;;
25049;SDS011;13046;49.814;9.918;2022-07-29T04:12:09;7.95;;;5.60;;
25049;SDS011;13046;49.814;9.918;2022-07-29T04:14:35;9.68;;;4.95;;
25049;SDS011;13046;49.814;9.918;2022-07-29T04:17:02;7.38;;;5.10;;
25049;SDS011;13046;49.814;9.918;2022-07-29T04:19:29;8.85;;;5.95;;
25049;SDS011;13046;49.814;9.918;2022-07-29T04:21:57;8.60;;;5.32;;
25049;SDS011;13046;49.814;9.918;2022-07-29T04:24:24;8.98;;;5.93;;
25049;SDS011;13046;49.814;9.918;2022-07-29T04:26:50;7.78;;;5.43;;
25049;SDS011;13046;49.814;9.918;2022-07-29T04:29:15;6.78;;;5.10;;
25049;SDS011;13046;49.814;9.918;2022-07-29T04:31:41;10.05;;;6.93;;
25049;SDS011;13046;49.814;9.918;2022-07-29T04:34:07;7.25;;;5.57;;
25049;SDS011;13046;49.814;9.918;2022-07-29T04:36:34;7.70;;;5.40;;
25049;SDS011;13046;49.814;9.918;2022-07-29T04:38:59;10.88;;;6.07;;
25049;SDS011;13046;49.814;9.918;2022-07-29T04:41:26;8.70;;;6.32;;
25049;SDS011;13046;49.814;9.918;2022-07-29T04:43:54;7.28;;;6.03;;
25049;SDS011;13046;49.814;9.918;2022-07-29T04:46:20;6.45;;;5.57;;
25049;SDS011;13046;49.814;9.918;2022-07-29T04:48:46;5.97;;;5.22;;
25049;SDS011;13046;49.814;9.918;2022-07-29T04:51:13;9.18;;;6.07;;
25049;SDS011;13046;49.814;9.918;2022-07-29T04:53:39;7.03;;;4.82;;
25049;SDS011;13046;49.814;9.918;2022-07-29T04:56:05;7.40;;;5.72;;
25049;SDS011;13046;49.814;9.918;2022-07-29T04:58:31;6.43;;;4.80;;
25049;SDS011;13046;49.814;9.918;2022-07-29T05:00:58;8.25;;;6.30;;
25049;SDS011;13046;49.814;9.918;2022-07-29T05:03:24;6.93;;;6.22;;
25049;SDS011;13046;49.814;9.918;2022-07-29T05:05:50;8.93;;;5.40;;
25049;SDS011;13046;49.814;9.918;2022-07-29T05:08:15;6.75;;;5.22;;
25049;SDS011;13046;49.814;9.918;2022-07-29T05:10:41;10.32;;;5.68;;
25049;SDS011;13046;49.814;9.918;2022-07-29T05:13:07;5.88;;;4.65;;
25049;SDS011;13046;49.814;9.918;2022-07-29T05:15:33;7.80;;;4.68;;
25049;SDS011;13046;49.814;9.918;2022-07-29T05:18:00;5.82;;;5.28;;
25049;SDS011;13046;49.814;9.918;2022-07-29T05:20:26;5.78;;;4.93;;
25049;SDS011;13046;49.814;9.918;2022-07-29T05:22:57;7.15;;;5.53;;
25049;SDS011;13046;49.814;9.918;2022-07-29T05:25:24;8.35;;;5.72;;
25049;SDS011;13046;49.814;9.918;2022-07-29T05:27:50;7.32;;;5.15;;
25049;SDS011;13046;49.814;9.918;2022-07-29T05:30:16;9.35;;;6.30;;
25049;SDS011;13046;49.814;9.918;2022-07-29T05:32:42;5.70;;;4.82;;
25049;SDS011;13046;49.814;9.918;2022-07-29T05:35:08;7.00;;;5.00;;
25049;SDS011;13046;49.814;9.918;2022-07-29T05:37:34;8.30;;;4.90;;
25049;SDS011;13046;49.814;9.918;2022-07-29T05:39:59;8.70;;;5.32;;
25049;SDS011;13046;49.814;9.918;2022-07-29T05:42:25;7.40;;;4.97;;
25049;SDS011;13046;49.814;9.918;2022-07-29T05:44:52;10.52;;;6.18;;
25049;SDS011;13046;49.814;9.918;2022-07-29T05:47:18;9.13;;;5.28;;
25049;SDS011;13046;49.814;9.918;2022-07-29T05:49:44;5.70;;;4.22;;
25049;SDS011;13046;49.814;9.918;2022-07-29T05:52:11;7.10;;;4.72;;
25049;SDS011;13046;49.814;9.918;2022-07-29T05:54:38;6.97;;;5.15;;
25049;SDS011;13046;49.814;9.918;2022-07-29T05:57:04;7.72;;;4.63;;
25049;SDS011;13046;49.814;9.918;2022-07-29T05:59:31;6.47;;;4.75;;
25049;SDS011;13046;49.814;9.918;2022-07-29T06:01:57;8.20;;;5.78;;
25049;SDS011;13046;49.814;9.918;2022-07-29T06:04:23;6.35;;;4.35;;
25049;SDS011;13046;49.814;9.918;2022-07-29T06:06:49;4.28;;;3.45;;
25049;SDS011;13046;49.814;9.918;2022-07-29T06:09:15;6.28;;;4.00;;
25049;SDS011;13046;49.814;9.918;2022-07-29T06:11:41;9.32;;;4.93;;
25049;SDS011;13046;49.814;9.918;2022-07-29T06:14:07;10.50;;;4.82;;
25049;SDS011;13046;49.814;9.918;2022-07-29T06:16:32;6.75;;;4.28;;
25049;SDS011;13046;49.814;9.918;2022-07-29T06:18:58;8.43;;;4.53;;
25049;SDS011;13046;49.814;9.918;2022-07-29T06:21:24;5.93;;;4.35;;
25049;SDS011;13046;49.814;9.918;2022-07-29T06:23:49;4.70;;;3.72;;
25049;SDS011;13046;49.814;9.918;2022-07-29T06:26:15;7.45;;;4.00;;
25049;SDS011;13046;49.814;9.918;2022-07-29T06:28:41;6.45;;;3.80;;
25049;SDS011;13046;49.814;9.918;2022-07-29T06:31:06;5.45;;;4.22;;
25049;SDS011;13046;49.814;9.918;2022-07-29T06:33:32;4.97;;;3.83;;
25049;SDS011;13046;49.814;9.918;2022-07-29T06:35:58;4.63;;;3.45;;
25049;SDS011;13046;49.814;9.918;2022-07-29T06:38:24;5.93;;;3.80;;
25049;SDS011;13046;49.814;9.918;2022-07-29T06:40:50;11.18;;;4.82;;
25049;SDS011;13046;49.814;9.918;2022-07-29T06:43:30;6.63;;;4.05;;
25049;SDS011;13046;49.814;9.918;2022-07-29T06:46:02;7.45;;;4.10;;
25049;SDS011;13046;49.814;9.918;2022-07-29T06:48:28;6.07;;;4.05;;
25049;SDS011;13046;49.814;9.918;2022-07-29T06:50:55;6.20;;;3.92;;
25049;SDS011;13046;49.814;9.918;2022-07-29T06:53:21;6.78;;;4.38;;
25049;SDS011;13046;49.814;9.918;2022-07-29T06:55:47;9.70;;;4.63;;
25049;SDS011;13046;49.814;9.918;2022-07-29T06:58:13;8.68;;;4.05;;
25049;SDS011;13046;49.814;9.918;2022-07-29T07:00:41;9.32;;;4.18;;
25049;SDS011;13046;49.814;9.918;2022-07-29T07:03:07;6.45;;;3.80;;
25049;SDS011;13046;49.814;9.918;2022-07-29T07:05:33;7.82;;;4.05;;
25049;SDS011;13046;49.814;9.918;2022-07-29T07:07:59;6.93;;;3.47;;
25049;SDS011;13046;49.814;9.918;2022-07-29T07:10:25;5.32;;;3.97;;
25049;SDS011;13046;49.814;9.918;2022-07-29T07:12:50;8.20;;;3.90;;
25049;SDS011;13046;49.814;9.918;2022-07-29T07:15:16;5.50;;;4.13;;
25049;SDS011;13046;49.814;9.918;2022-07-29T07:17:41;7.30;;;3.33;;
25049;SDS011;13046;49.814;9.918;2022-07-29T07:20:07;6.70;;;3.75;;
25049;SDS011;13046;49.814;9.918;2022-07-29T07:22:33;7.25;;;3.67;;
25049;SDS011;13046;49.814;9.918;2022-07-29T07:24:59;7.55;;;3.85;;
25049;SDS011;13046;49.814;9.918;2022-07-29T07:27:25;6.43;;;3.45;;
25049;SDS011;13046;49.814;9.918;2022-07-29T07:29:51;7.70;;;4.35;;
25049;SDS011;13046;49.814;9.918;2022-07-29T07:32:17;8.30;;;5.18;;
25049;SDS011;13046;49.814;9.918;2022-07-29T07:34:42;8.77;;;3.78;;
25049;SDS011;13046;49.814;9.918;2022-07-29T07:37:08;5.38;;;3.40;;
25049;SDS011;13046;49.814;9.918;2022-07-29T07:39:34;8.13;;;3.95;;
25049;SDS011;13046;49.814;9.918;2022-07-29T07:42:00;9.40;;;4.32;;
25049;SDS011;13046;49.814;9.918;2022-07-29T07:44:26;5.38;;;3.85;;
25049;SDS011;13046;49.814;9.918;2022-07-29T07:46:52;7.60;;;3.60;;
25049;SDS011;13046;49.814;9.918;2022-07-29T07:49:17;5.88;;;4.35;;
25049;SDS011;13046;49.814;9.918;2022-07-29T07:51:43;9.50;;;4.13;;
25049;SDS011;13046;49.814;9.918;2022-07-29T07:54:09;5.60;;;3.80;;
25049;SDS011;13046;49.814;9.918;2022-07-29T07:56:35;5.95;;;4.63;;
25049;SDS011;13046;49.814;9.918;2022-07-29T07:59:01;6.30;;;4.88;;
25049;SDS011;13046;49.814;9.918;2022-07-29T08:01:27;4.35;;;3.95;;
25049;SDS011;13046;49.814;9.918;2022-07-29T08:03:53;5.80;;;4.80;;
25049;SDS011;13046;49.814;9.918;2022-07-29T08:06:19;5.68;;;4.97;;
25049;SDS011;13046;49.814;9.918;2022-07-29T08:08:45;6.20;;;4.32;;
25049;SDS011;13046;49.814;9.918;2022-07-29T08:11:11;7.05;;;4.20;;
25049;SDS011;13046;49.814;9.918;2022-07-29T08:13:37;4.00;;;3.70;;
25049;SDS011;13046;49.814;9.918;2022-07-29T08:16:04;7.97;;;4.22;;
25049;SDS011;13046;49.814;9.918;2022-07-29T08:18:37;9.27;;;4.35;;
25049;SDS011;13046;49.814;9.918;2022-07-29T08:21:03;5.65;;;4.47;;
25049;SDS011;13046;49.814;9.918;2022-07-29T08:23:29;7.50;;;4.40;;
25049;SDS011;13046;49.814;9.918;2022-07-29T08:26:10;4.15;;;3.75;;
25049;SDS011;13046;49.814;9.918;2022-07-29T08:28:40;10.82;;;4.80;;
25049;SDS011;13046;49.814;9.918;2022-07-29T08:31:06;7.20;;;4.00;;
25049;SDS011;13046;49.814;9.918;2022-07-29T08:33:32;6.47;;;4.07;;
25049;SDS011;13046;49.814;9.918;2022-07-29T08:35:59;7.68;;;4.53;;
25049;SDS011;13046;49.814;9.918;2022-07-29T08:38:25;7.40;;;5.38;;
25049;SDS011;13046;49.814;9.918;2022-07-29T08:40:51;7.72;;;4.78;;
25049;SDS011;13046;49.814;9.918;2022-07-29T08:43:18;6.07;;;4.15;;
25049;SDS011;13046;49.814;9.918;2022-07-29T08:45:50;5.57;;;4.30;;
25049;SDS011;13046;49.814;9.918;2022-07-29T08:48:18;5.25;;;4.13;;
25049;SDS011;13046;49.814;9.918;2022-07-29T08:50:45;4.28;;;3.88;;
25049;SDS011;13046;49.814;9.918;2022-07-29T08:53:13;5.20;;;4.07;;
25049;SDS011;13046;49.814;9.918;2022-07-29T08:55:40;10.02;;;5.03;;
25049;SDS011;13046;49.814;9.918;2022-07-29T08:58:06;7.28;;;4.32;;
25049;SDS011;13046;49.814;9.918;2022-07-29T09:00:32;6.35;;;5.38;;
25049;SDS011;13046;49.814;9.918;2022-07-29T09:03:01;5.38;;;4.75;;
25049;SDS011;13046;49.814;9.918;2022-07-29T09:05:28;6.72;;;3.90;;
25049;SDS011;13046;49.814;9.918;2022-07-29T09:07:55;6.80;;;4.60;;
25049;SDS011;13046;49.814;9.918;2022-07-29T09:10:21;4.57;;;4.25;;
25049;SDS011;13046;49.814;9.918;2022-07-29T09:12:47;8.60;;;4.10;;
25049;SDS011;13046;49.814;9.918;2022-07-29T09:15:14;5.30;;;4.18;;
25049;SDS011;13046;49.814;9.918;2022-07-29T09:20:17;6.00;;;4.28;;
25049;SDS011;13046;49.814;9.918;2022-07-29T09:22:43;7.10;;;4.35;;
25049;SDS011;13046;49.814;9.918;2022-07-29T09:25:14;6.63;;;4.10;;
25049;SDS011;13046;49.814;9.918;2022-07-29T09:27:40;4.90;;;4.07;;
25049;SDS011;13046;49.814;9.918;2022-07-29T09:30:07;5.97;;;4.03;;
25049;SDS011;13046;49.814;9.918;2022-07-29T09:32:59;6.75;;;3.80;;
25049;SDS011;13046;49.814;9.918;2022-07-29T09:35:26;7.90;;;4.72;;
25049;SDS011;13046;49.814;9.918;2022-07-29T09:37:53;7.68;;;4.53;;
25049;SDS011;13046;49.814;9.918;2022-07-29T09:40:21;7.70;;;4.00;;
25049;SDS011;13046;49.814;9.918;2022-07-29T09:42:47;7.55;;;4.28;;
25049;SDS011;13046;49.814;9.918;2022-07-29T09:47:52;9.98;;;5.53;;
25049;SDS011;13046;49.814;9.918;2022-07-29T09:50:19;7.85;;;4.35;;
25049;SDS011;13046;49.814;9.918;2022-07-29T09:52:52;5.75;;;4.13;;
25049;SDS011;13046;49.814;9.918;2022-07-29T09:55:18;7.95;;;4.80;;
25049;SDS011;13046;49.814;9.918;2022-07-29T09:57:44;4.72;;;4.18;;
25049;SDS011;13046;49.814;9.918;2022-07-29T10:00:12;6.80;;;4.53;;
25049;SDS011;13046;49.814;9.918;2022-07-29T10:02:41;6.53;;;4.57;;
25049;SDS011;13046;49.814;9.918;2022-07-29T10:07:51;4.93;;;4.43;;
25049;SDS011;13046;49.814;9.918;2022-07-29T10:10:21;4.88;;;4.32;;
25049;SDS011;13046;49.814;9.918;2022-07-29T10:12:58;17.27;;;5.22;;
25049;SDS011;13046;49.814;9.918;2022-07-29T10:15:29;8.10;;;4.70;;
25049;SDS011;13046;49.814;9.918;2022-07-29T10:18:03;6.47;;;5.00;;
25049;SDS011;13046;49.814;9.918;2022-07-29T10:20:29;9.68;;;5.18;;
25049;SDS011;13046;49.814;9.918;2022-07-29T10:22:55;6.72;;;5.13;;
25049;SDS011;13046;49.814;9.918;2022-07-29T10:25:21;7.82;;;4.95;;
25049;SDS011;13046;49.814;9.918;2022-07-29T10:27:48;10.50;;;5.15;;
25049;SDS011;13046;49.814;9.918;2022-07-29T10:30:18;9.63;;;5.63;;
25049;SDS011;13046;49.814;9.918;2022-07-29T10:38:15;6.43;;;4.45;;
25049;SDS011;13046;49.814;9.918;2022-07-29T10:44:06;6.72;;;4.13;;
25049;SDS011;13046;49.814;9.918;2022-07-29T10:46:46;6.05;;;4.82;;
25049;SDS011;13046;49.814;9.918;2022-07-29T10:54:18;9.00;;;5.25;;
25049;SDS011;13046;49.814;9.918;2022-07-29T10:56:44;6.65;;;4.40;;
25049;SDS011;13046;49.814;9.918;2022-07-29T11:01:45;4.93;;;4.32;;
25049;SDS011;13046;49.814;9.918;2022-07-29T11:04:14;6.78;;;4.72;;
25049;SDS011;13046;49.814;9.918;2022-07-29T11:09:27;6.35;;;4.47;;
25049;SDS011;13046;49.814;9.918;2022-07-29T11:11:55;11.35;;;6.25;;
25049;SDS011;13046;49.814;9.918;2022-07-29T11:17:06;7.38;;;5.50;;
25049;SDS011;13046;49.814;9.918;2022-07-29T11:19:33;5.15;;;3.83;;
25049;SDS011;13046;49.814;9.918;2022-07-29T11:21:59;5.18;;;3.90;;
25049;SDS011;13046;49.814;9.918;2022-07-29T11:24:26;8.40;;;4.57;;
25049;SDS011;13046;49.814;9.918;2022-07-29T11:29:49;4.85;;;3.75;;
25049;SDS011;13046;49.814;9.918;2022-07-29T11:32:15;4.50;;;4.10;;
25049;SDS011;13046;49.814;9.918;2022-07-29T11:34:43;8.52;;;4.38;;
25049;SDS011;13046;49.814;9.918;2022-07-29T11:39:43;5.57;;;4.43;;
25049;SDS011;13046;49.814;9.918;2022-07-29T11:45:08;6.57;;;4.10;;
25049;SDS011;13046;49.814;9.918;2022-07-29T11:50:26;12.73;;;4.72;;
25049;SDS011;13046;49.814;9.918;2022-07-29T11:52:57;5.38;;;3.70;;
25049;SDS011;13046;49.814;9.918;2022-07-29T11:55:24;9.93;;;5.32;;
25049;SDS011;13046;49.814;9.918;2022-07-29T12:00:25;5.70;;;4.28;;
25049;SDS011;13046;49.814;9.918;2022-07-29T12:02:54;4.65;;;4.25;;
25049;SDS011;13046;49.814;9.918;2022-07-29T12:05:20;5.75;;;4.50;;
25049;SDS011;13046;49.814;9.918;2022-07-29T12:07:46;6.28;;;4.00;;
25049;SDS011;13046;49.814;9.918;2022-07-29T12:10:13;7.70;;;4.45;;
25049;SDS011;13046;49.814;9.918;2022-07-29T12:12:39;5.80;;;4.30;;
25049;SDS011;13046;49.814;9.918;2022-07-29T12:15:15;7.43;;;4.50;;
25049;SDS011;13046;49.814;9.918;2022-07-29T12:17:42;5.30;;;4.28;;
25049;SDS011;13046;49.814;9.918;2022-07-29T12:20:08;5.57;;;3.80;;
25049;SDS011;13046;49.814;9.918;2022-07-29T12:22:36;9.10;;;4.43;;
25049;SDS011;13046;49.814;9.918;2022-07-29T12:25:05;5.22;;;4.70;;
25049;SDS011;13046;49.814;9.918;2022-07-29T12:27:39;4.68;;;4.28;;
25049;SDS011;13046;49.814;9.918;2022-07-29T12:30:09;7.60;;;3.92;;
25049;SDS011;13046;49.814;9.918;2022-07-29T12:32:38;7.93;;;5.32;;
25049;SDS011;13046;49.814;9.918;2022-07-29T12:35:22;7.10;;;4.28;;
25049;SDS011;13046;49.814;9.918;2022-07-29T12:37:48;4.68;;;4.28;;
25049;SDS011;13046;49.814;9.918;2022-07-29T12:40:16;7.20;;;4.63;;
25049;SDS011;13046;49.814;9.918;2022-07-29T12:45:34;8.55;;;4.10;;
25049;SDS011;13046;49.814;9.918;2022-07-29T12:48:02;4.80;;;4.32;;
25049;SDS011;13046;49.814;9.918;2022-07-29T12:50:28;8.52;;;5.22;;
25049;SDS011;13046;49.814;9.918;2022-07-29T12:52:54;8.82;;;5.00;;
25049;SDS011;13046;49.814;9.918;2022-07-29T12:55:42;7.53;;;4.45;;
25049;SDS011;13046;49.814;9.918;2022-07-29T12:58:10;4.78;;;3.95;;
25049;SDS011;13046;49.814;9.918;2022-07-29T13:00:36;6.63;;;4.88;;
25049;SDS011;13046;49.814;9.918;2022-07-29T13:03:01;7.80;;;3.90;;
25049;SDS011;13046;49.814;9.918;2022-07-29T13:05:40;4.75;;;4.32;;
25049;SDS011;13046;49.814;9.918;2022-07-29T13:08:11;6.15;;;3.97;;
25049;SDS011;13046;49.814;9.918;2022-07-29T13:10:38;9.35;;;3.97;;
25049;SDS011;13046;49.814;9.918;2022-07-29T13:13:08;11.02;;;4.35;;
25049;SDS011;13046;49.814;9.918;2022-07-29T13:15:39;15.10;;;5.15;;
25049;SDS011;13046;49.814;9.918;2022-07-29T13:18:26;4.45;;;4.15;;
25049;SDS011;13046;49.814;9.918;2022-07-29T13:20:57;8.45;;;4.40;;
25049;SDS011;13046;49.814;9.918;2022-07-29T13:23:37;9.80;;;4.90;;
25049;SDS011;13046;49.814;9.918;2022-07-29T13:26:06;5.93;;;4.80;;
25049;SDS011;13046;49.814;9.918;2022-07-29T13:28:36;9.70;;;5.75;;
25049;SDS011;13046;49.814;9.918;2022-07-29T13:31:02;6.03;;;5.50;;
25049;SDS011;13046;49.814;9.918;2022-07-29T13:33:28;8.00;;;5.43;;
25049;SDS011;13046;49.814;9.918;2022-07-29T13:35:55;6.70;;;5.10;;
25049;SDS011;13046;49.814;9.918;2022-07-29T13:38:20;6.15;;;5.55;;
25049;SDS011;13046;49.814;9.918;2022-07-29T13:40:46;6.22;;;5.75;;
25049;SDS011;13046;49.814;9.918;2022-07-29T13:43:12;6.25;;;5.70;;
25049;SDS011;13046;49.814;9.918;2022-07-29T13:45:38;7.00;;;5.65;;
25049;SDS011;13046;49.814;9.918;2022-07-29T13:48:03;7.28;;;6.18;;
25049;SDS011;13046;49.814;9.918;2022-07-29T13:50:29;5.85;;;5.35;;
25049;SDS011;13046;49.814;9.918;2022-07-29T13:52:55;6.13;;;5.63;;
25049;SDS011;13046;49.814;9.918;2022-07-29T13:55:21;7.88;;;5.80;;
25049;SDS011;13046;49.814;9.918;2022-07-29T13:57:46;7.57;;;5.82;;
25049;SDS011;13046;49.814;9.918;2022-07-29T14:00:12;6.28;;;5.50;;
25049;SDS011;13046;49.814;9.918;2022-07-29T14:02:40;23.42;;;8.10;;
25049;SDS011;13046;49.814;9.918;2022-07-29T14:05:06;7.25;;;6.65;;
25049;SDS011;13046;49.814;9.918;2022-07-29T14:07:32;8.73;;;6.75;;
25049;SDS011;13046;49.814;9.918;2022-07-29T14:09:58;9.10;;;7.03;;
25049;SDS011;13046;49.814;9.918;2022-07-29T14:12:23;15.10;;;9.25;;
25049;SDS011;13046;49.814;9.918;2022-07-29T14:14:49;9.30;;;7.35;;
25049;SDS011;13046;49.814;9.918;2022-07-29T14:17:15;9.38;;;7.05;;
25049;SDS011;13046;49.814;9.918;2022-07-29T14:19:41;7.97;;;7.18;;
25049;SDS011;13046;49.814;9.918;2022-07-29T14:22:07;9.15;;;7.45;;
25049;SDS011;13046;49.814;9.918;2022-07-29T14:24:33;11.27;;;8.80;;
25049;SDS011;13046;49.814;9.918;2022-07-29T14:27:00;8.45;;;7.53;;
25049;SDS011;13046;49.814;9.918;2022-07-29T14:29:25;8.23;;;7.63;;
25049;SDS011;13046;49.814;9.918;2022-07-29T14:31:52;9.23;;;8.38;;
25049;SDS011;13046;49.814;9.918;2022-07-29T14:34:17;9.32;;;8.43;;
25049;SDS011;13046;49.814;9.918;2022-07-29T14:36:43;17.70;;;11.20;;
25049;SDS011;13046;49.814;9.918;2022-07-29T14:39:09;8.70;;;7.82;;
25049;SDS011;13046;49.814;9.918;2022-07-29T14:41:34;10.40;;;9.40;;
25049;SDS011;13046;49.814;9.918;2022-07-29T14:44:00;8.65;;;7.78;;
25049;SDS011;13046;49.814;9.918;2022-07-29T14:46:26;8.77;;;8.10;;
25049;SDS011;13046;49.814;9.918;2022-07-29T14:48:52;12.82;;;9.55;;
25049;SDS011;13046;49.814;9.918;2022-07-29T14:51:18;9.15;;;8.40;;
25049;SDS011;13046;49.814;9.918;2022-07-29T14:53:44;12.73;;;8.90;;
25049;SDS011;13046;49.814;9.918;2022-07-29T14:56:10;9.82;;;9.02;;
25049;SDS011;13046;49.814;9.918;2022-07-29T14:58:36;11.80;;;9.50;;
25049;SDS011;13046;49.814;9.918;2022-07-29T15:01:01;10.23;;;9.27;;
25049;SDS011;13046;49.814;9.918;2022-07-29T15:03:28;9.55;;;8.68;;
25049;SDS011;13046;49.814;9.918;2022-07-29T15:05:54;12.25;;;9.60;;
25049;SDS011;13046;49.814;9.918;2022-07-29T15:08:20;10.05;;;9.10;;
25049;SDS011;13046;49.814;9.918;2022-07-29T15:10:46;10.20;;;8.00;;
25049;SDS011;13046;49.814;9.918;2022-07-29T15:13:12;8.73;;;7.82;;
25049;SDS011;13046;49.814;9.918;2022-07-29T15:15:38;6.93;;;6.30;;
25049;SDS011;13046;49.814;9.918;2022-07-29T15:18:03;7.10;;;6.43;;
25049;SDS011;13046;49.814;9.918;2022-07-29T15:20:29;9.73;;;5.88;;
25049;SDS011;13046;49.814;9.918;2022-07-29T15:22:55;9.18;;;5.53;;
25049;SDS011;13046;49.814;9.918;2022-07-29T15:25:22;10.00;;;7.07;;
25049;SDS011;13046;49.814;9.918;2022-07-29T15:27:48;6.43;;;5.82;;
25049;SDS011;13046;49.814;9.918;2022-07-29T15:30:13;7.85;;;6.57;;
25049;SDS011;13046;49.814;9.918;2022-07-29T15:32:42;7.75;;;6.93;;
25049;SDS011;13046;49.814;9.918;2022-07-29T15:35:08;7.60;;;6.90;;
25049;SDS011;13046;49.814;9.918;2022-07-29T15:37:35;7.32;;;6.68;;
25049;SDS011;13046;49.814;9.918;2022-07-29T15:40:02;8.45;;;7.65;;
25049;SDS011;13046;49.814;9.918;2022-07-29T15:42:29;7.18;;;6.57;;
25049;SDS011;13046;49.814;9.918;2022-07-29T15:44:55;7.22;;;6.57;;